KR-0631 weather

Daehang-dong Heliport
Daehang-dong, Busan Gwang'yeogsi, South Korea

Public forecast

Using degrees Celsius for public forecast. Weather courtesy of forecast.io.

METAR (pilot weather report)

Closest report is Gimhae International Airport, 12.5 nm (23.2 km) NNE. Retrieved 2019/08/23 12:00 UTC (34 minutes ago):

RKPK 231200Z 30001KT CAVOK 25/20 Q1009

TAF (pilot weather forecast)

Closest forecast is Gimhae International Airport, 12.5 nm (23.2 km) NNE. Retrieved 2019/08/23 12:00 UTC (34 minutes ago):

TAF RKPK 231100Z 2312/2418 18006KT 9999 SCT030 SCT200 TN23/2321Z TX29/2406Z BECMG 2314/2315 33006KT